createdAt,value
2019-04-26T00:01:32.505Z,17.07
2019-04-26T00:04:03.476Z,16.03
2019-04-26T00:06:34.159Z,16.87
2019-04-26T00:09:30.323Z,16.33
2019-04-26T00:12:18.903Z,16.70
2019-04-26T00:15:01.970Z,17.03
2019-04-26T00:17:37.115Z,17.50
2019-04-26T00:20:09.251Z,17.23
2019-04-26T00:22:39.955Z,17.70
2019-04-26T00:25:11.446Z,17.67
2019-04-26T00:27:43.914Z,17.30
2019-04-26T00:30:14.991Z,18.07
2019-04-26T00:32:45.639Z,18.80
2019-04-26T00:35:16.292Z,17.33
2019-04-26T00:37:47.298Z,18.00
2019-04-26T00:40:18.275Z,19.70
2019-04-26T00:42:49.006Z,18.40
2019-04-26T00:45:20.977Z,19.87
2019-04-26T00:47:52.830Z,19.30
2019-04-26T00:50:24.254Z,19.03
2019-04-26T00:52:55.623Z,18.67
2019-04-26T00:55:26.451Z,20.23
2019-04-26T00:57:57.601Z,21.13
2019-04-26T01:00:28.781Z,19.70
2019-04-26T01:02:59.604Z,20.57
2019-04-26T01:05:32.021Z,20.30
2019-04-26T01:08:02.962Z,22.23
2019-04-26T01:10:33.646Z,20.77
2019-04-26T01:13:04.486Z,20.77
2019-04-26T01:15:35.316Z,19.70
2019-04-26T01:18:06.167Z,21.60
2019-04-26T01:20:37.854Z,22.63
2019-04-26T01:23:11.535Z,21.17
2019-04-26T01:25:55.586Z,22.30
2019-04-26T01:28:32.391Z,22.33
2019-04-26T01:31:05.881Z,22.23
2019-04-26T01:33:38.767Z,22.27
2019-04-26T01:36:13.277Z,22.30
2019-04-26T01:38:42.766Z,22.30
2019-04-26T01:41:21.373Z,22.93
2019-04-26T01:44:00.697Z,22.53
2019-04-26T01:46:38.451Z,22.57
2019-04-26T01:49:11.828Z,22.30
2019-04-26T01:51:59.685Z,22.40
2019-04-26T01:54:35.834Z,22.43
2019-04-26T01:57:06.671Z,23.63
2019-04-26T01:59:41.605Z,23.03
2019-04-26T02:02:34.154Z,23.90
2019-04-26T02:05:08.703Z,23.70
2019-04-26T02:07:39.875Z,23.23
2019-04-26T02:10:18.455Z,23.17
2019-04-26T02:12:50.124Z,23.40
2019-04-26T02:15:24.484Z,22.87
2019-04-26T02:17:57.302Z,23.93
2019-04-26T02:21:24.520Z,23.53
2019-04-26T02:24:10.473Z,23.53
2019-04-26T02:26:43.650Z,23.67
2019-04-26T02:29:20.732Z,23.23
2019-04-26T02:31:55.017Z,24.37
2019-04-26T02:34:28.905Z,23.00
2019-04-26T02:37:01.659Z,25.07
2019-04-26T02:39:39.302Z,24.33
2019-04-26T02:42:26.569Z,23.50
2019-04-26T02:45:23.855Z,23.57
2019-04-26T02:48:14.122Z,23.80
2019-04-26T02:50:51.203Z,24.10
2019-04-26T02:53:47.647Z,23.87
2019-04-26T02:56:30.414Z,23.63
2019-04-26T02:59:37.701Z,25.00
2019-04-26T03:02:22.465Z,23.87
2019-04-26T03:05:06.044Z,23.07
2019-04-26T03:08:07.208Z,24.47
2019-04-26T03:10:44.793Z,23.33
2019-04-26T03:13:36.911Z,23.40
2019-04-26T03:16:48.343Z,23.90
2019-04-26T03:19:36.331Z,23.93
2019-04-26T03:22:40.803Z,24.37
2019-04-26T03:25:38.260Z,23.73
2019-04-26T03:28:25.870Z,24.40
2019-04-26T03:31:08.303Z,23.83
2019-04-26T03:34:20.866Z,24.43
2019-04-26T03:37:25.590Z,24.03
2019-04-26T03:40:11.632Z,23.60
2019-04-26T03:43:09.584Z,24.87
2019-04-26T03:45:48.939Z,24.07
2019-04-26T03:48:35.530Z,24.50
2019-04-26T03:51:13.589Z,23.80
2019-04-26T03:53:54.300Z,25.63
2019-04-26T03:56:58.998Z,23.50
2019-04-26T04:00:06.925Z,23.70
2019-04-26T04:03:19.769Z,25.20
2019-04-26T04:05:54.421Z,24.93
2019-04-26T04:08:39.752Z,24.40
2019-04-26T04:11:13.324Z,23.90
2019-04-26T04:14:05.508Z,24.17
2019-04-26T04:16:47.387Z,24.53
2019-04-26T04:20:21.237Z,25.27
2019-04-26T04:23:01.386Z,23.97
2019-04-26T04:25:37.978Z,25.53
2019-04-26T04:28:25.334Z,25.20
2019-04-26T04:31:26.855Z,25.20
2019-04-26T04:34:11.094Z,25.00
2019-04-26T04:36:50.945Z,25.43
2019-04-26T04:40:11.984Z,24.80
2019-04-26T04:43:10.532Z,24.40
2019-04-26T04:46:49.169Z,24.77
2019-04-26T04:49:32.492Z,24.67
2019-04-26T04:52:31.190Z,25.10
2019-04-26T04:55:19.746Z,24.10
2019-04-26T04:58:04.620Z,25.67
2019-04-26T05:01:16.352Z,24.40
2019-04-26T05:04:09.946Z,24.40
2019-04-26T05:07:07.662Z,24.30
2019-04-26T05:09:54.954Z,23.20
2019-04-26T05:12:44.446Z,24.67
2019-04-26T05:15:33.742Z,24.90
2019-04-26T05:18:36.483Z,24.63
2019-04-26T05:21:33.376Z,23.63
2019-04-26T05:24:39.518Z,24.33
2019-04-26T05:27:52.962Z,23.57
2019-04-26T05:31:09.308Z,24.10
2019-04-26T05:34:33.600Z,24.60
2019-04-26T05:37:16.010Z,24.27
2019-04-26T05:40:23.309Z,23.77
2019-04-26T05:43:31.290Z,22.77
2019-04-26T05:46:28.047Z,23.33
2019-04-26T05:49:40.204Z,22.63
2019-04-26T05:53:01.872Z,22.97
2019-04-26T05:56:08.767Z,23.43
2019-04-26T05:59:11.925Z,21.57
2019-04-26T06:02:38.631Z,22.43
2019-04-26T06:05:46.142Z,22.77
2019-04-26T06:08:51.167Z,23.33
2019-04-26T06:11:31.942Z,22.80
2019-04-26T06:14:50.498Z,21.50
2019-04-26T06:18:16.967Z,21.00
2019-04-26T06:20:57.427Z,21.13
2019-04-26T06:23:57.822Z,22.13
2019-04-26T06:27:11.046Z,20.53
2019-04-26T06:29:46.452Z,20.47
2019-04-26T06:32:28.174Z,20.23
2019-04-26T06:35:24.394Z,19.07
2019-04-26T06:38:17.971Z,18.93
2019-04-26T06:41:12.221Z,20.33
2019-04-26T06:43:48.391Z,18.57
2019-04-26T06:47:08.925Z,19.83
2019-04-26T06:50:15.002Z,18.83
2019-04-26T06:53:29.222Z,18.53
2019-04-26T06:56:28.630Z,18.50
2019-04-26T06:59:10.910Z,18.10
2019-04-26T07:01:52.183Z,18.60
2019-04-26T07:05:01.210Z,18.53
2019-04-26T07:08:12.692Z,18.80
2019-04-26T07:11:02.751Z,18.23
2019-04-26T07:14:11.467Z,18.30
2019-04-26T07:16:58.028Z,18.40
2019-04-26T07:19:59.619Z,18.20
2019-04-26T07:23:02.306Z,18.77
2019-04-26T07:26:18.187Z,19.60
2019-04-26T07:29:32.610Z,17.70
2019-04-26T07:32:16.601Z,18.90
2019-04-26T07:35:18.115Z,17.70
2019-04-26T07:39:09.174Z,17.90
2019-04-26T07:42:07.367Z,17.93
2019-04-26T07:45:15.994Z,17.33
2019-04-26T07:48:26.394Z,18.80
2019-04-26T07:51:33.587Z,18.23
2019-04-26T07:54:33.519Z,17.13
2019-04-26T07:57:41.218Z,17.07
2019-04-26T08:00:31.178Z,17.27
2019-04-26T08:03:25.436Z,17.57
2019-04-26T08:06:09.617Z,17.00
2019-04-26T08:08:50.822Z,17.00
2019-04-26T08:11:29.350Z,17.13
2019-04-26T08:14:24.977Z,17.67
2019-04-26T08:17:35.470Z,17.23
2019-04-26T08:20:51.874Z,17.07
2019-04-26T08:23:41.094Z,16.53
2019-04-26T08:26:07.759Z,16.47
2019-04-26T08:28:41.696Z,17.23
2019-04-26T08:31:21.166Z,16.50
2019-04-26T08:33:57.802Z,16.77
2019-04-26T08:36:32.981Z,16.37
2019-04-26T08:39:07.009Z,16.70
2019-04-26T08:41:40.240Z,16.80
2019-04-26T08:44:30.501Z,16.63
2019-04-26T08:47:14.125Z,15.80
2019-04-26T08:50:11.033Z,16.60
2019-04-26T08:52:45.031Z,15.90
2019-04-26T08:55:18.864Z,17.03
2019-04-26T08:57:52.417Z,16.90
2019-04-26T09:00:40.448Z,16.30
2019-04-26T09:03:47.478Z,16.13
2019-04-26T09:06:39.250Z,16.13
2019-04-26T09:09:19.823Z,15.70
2019-04-26T09:11:59.812Z,16.50
2019-04-26T09:14:30.522Z,16.70
2019-04-26T09:17:01.629Z,17.20
2019-04-26T09:19:33.566Z,18.10
2019-04-26T09:22:13.638Z,18.20
2019-04-26T09:24:55.134Z,18.17
2019-04-26T09:27:54.137Z,19.00
2019-04-26T09:30:34.410Z,17.93
2019-04-26T09:33:21.857Z,18.30
2019-04-26T09:35:52.702Z,18.27
2019-04-26T09:38:23.371Z,18.47
2019-04-26T09:40:56.251Z,17.37
2019-04-26T09:43:36.490Z,17.17
2019-04-26T09:46:26.282Z,17.47
2019-04-26T09:49:31.102Z,17.43
2019-04-26T09:52:03.250Z,18.33
2019-04-26T09:54:33.913Z,17.93
2019-04-26T09:57:05.029Z,17.37
2019-04-26T09:59:36.301Z,18.13
2019-04-26T10:02:08.978Z,17.23
2019-04-26T10:04:39.740Z,17.53
2019-04-26T10:07:11.158Z,17.50
2019-04-26T10:09:42.449Z,16.67
2019-04-26T10:12:21.605Z,15.47
2019-04-26T10:15:03.169Z,16.50
2019-04-26T10:17:35.170Z,16.07
2019-04-26T10:20:06.486Z,16.80
2019-04-26T10:22:37.610Z,17.37
2019-04-26T10:25:16.369Z,16.67
2019-04-26T10:27:42.526Z,16.30
2019-04-26T10:30:16.666Z,16.07
2019-04-26T10:32:47.559Z,17.40
2019-04-26T10:35:21.824Z,16.53
2019-04-26T10:37:52.694Z,15.27
2019-04-26T10:40:35.003Z,15.93
2019-04-26T10:42:57.575Z,16.27
2019-04-26T10:45:29.459Z,15.70
2019-04-26T10:48:01.195Z,17.57
2019-04-26T10:50:34.429Z,17.30
2019-04-26T10:53:30.141Z,16.57
2019-04-26T10:56:20.195Z,16.43
2019-04-26T10:59:09.796Z,16.23
2019-04-26T11:01:39.622Z,15.57
2019-04-26T11:04:10.663Z,15.57
2019-04-26T11:06:41.233Z,14.40
2019-04-26T11:09:12.290Z,14.10
2019-04-26T11:11:43.132Z,14.87
2019-04-26T11:14:13.783Z,15.72
2019-04-26T11:16:44.247Z,15.40
2019-04-26T11:19:14.866Z,13.75
2019-04-26T11:21:45.587Z,14.13
2019-04-26T11:24:19.436Z,14.78
2019-04-26T11:26:48.724Z,14.45
2019-04-26T11:29:19.598Z,14.70
2019-04-26T11:31:50.189Z,15.05
2019-04-26T11:34:23.583Z,14.40
2019-04-26T11:36:53.643Z,15.00
2019-04-26T11:39:24.480Z,15.43
2019-04-26T11:41:55.219Z,13.70
2019-04-26T11:44:27.790Z,13.45
2019-04-26T11:47:02.862Z,13.00
2019-04-26T11:49:32.104Z,13.60
2019-04-26T11:52:04.104Z,13.15
2019-04-26T11:54:35.046Z,12.98
2019-04-26T11:57:08.180Z,12.40
2019-04-26T11:59:38.252Z,12.90
2019-04-26T12:02:12.191Z,13.35
2019-04-26T12:05:06.678Z,12.13
2019-04-26T12:07:48.548Z,12.73
2019-04-26T12:10:19.604Z,12.82
2019-04-26T12:12:51.881Z,13.60
2019-04-26T12:15:30.163Z,13.40
2019-04-26T12:17:58.823Z,12.78
2019-04-26T12:20:28.523Z,12.88
2019-04-26T12:22:59.146Z,13.05
2019-04-26T12:25:31.184Z,13.30
2019-04-26T12:28:05.995Z,12.95
2019-04-26T12:30:34.726Z,12.75
2019-04-26T12:33:05.578Z,13.27
2019-04-26T12:35:36.502Z,12.75
2019-04-26T12:38:07.243Z,13.13
2019-04-26T12:40:38.536Z,13.25
2019-04-26T12:43:09.212Z,12.83
2019-04-26T12:45:56.382Z,12.70
2019-04-26T12:48:27.442Z,12.25
2019-04-26T12:50:59.282Z,11.67
2019-04-26T12:53:31.435Z,12.00
2019-04-26T12:56:02.715Z,12.40
2019-04-26T12:58:33.543Z,12.30
2019-04-26T13:01:08.025Z,11.70
2019-04-26T13:03:38.967Z,12.23
2019-04-26T13:06:10.092Z,11.20
2019-04-26T13:08:41.162Z,11.67
2019-04-26T13:11:19.850Z,12.17
2019-04-26T13:14:00.575Z,11.77
2019-04-26T13:16:39.110Z,11.57
2019-04-26T13:19:09.775Z,11.80
2019-04-26T13:21:40.355Z,12.13
2019-04-26T13:24:11.208Z,11.40
2019-04-26T13:26:41.992Z,11.77
2019-04-26T13:29:12.770Z,11.33
2019-04-26T13:31:43.615Z,11.60
2019-04-26T13:34:14.526Z,11.57
2019-04-26T13:36:45.337Z,11.77
2019-04-26T13:39:17.881Z,11.83
2019-04-26T13:42:02.237Z,12.17
2019-04-26T13:44:40.861Z,11.63
2019-04-26T13:47:45.946Z,11.47
2019-04-26T13:50:27.997Z,11.67
2019-04-26T13:52:58.894Z,11.53
2019-04-26T13:55:30.479Z,12.90
2019-04-26T13:58:01.429Z,11.60
2019-04-26T14:00:33.044Z,12.53
2019-04-26T14:03:04.647Z,12.90
2019-04-26T14:05:35.210Z,12.50
2019-04-26T14:08:06.338Z,12.60
2019-04-26T14:10:36.892Z,11.90
2019-04-26T14:13:08.027Z,12.47
2019-04-26T14:15:43.247Z,11.60
2019-04-26T14:18:11.149Z,13.03
2019-04-26T14:20:42.070Z,13.37
2019-04-26T14:23:37.493Z,12.97
2019-04-26T14:26:10.938Z,12.23
2019-04-26T14:28:42.076Z,12.30
2019-04-26T14:31:16.384Z,13.30
2019-04-26T14:33:45.202Z,12.30
2019-04-26T14:36:17.861Z,11.97
2019-04-26T14:38:47.815Z,12.27
2019-04-26T14:41:22.741Z,11.97
2019-04-26T14:43:52.728Z,12.17
2019-04-26T14:46:23.639Z,11.47
2019-04-26T14:49:01.371Z,12.03
2019-04-26T14:51:27.377Z,12.10
2019-04-26T14:53:58.270Z,11.67
2019-04-26T14:56:30.831Z,11.87
2019-04-26T14:59:07.966Z,11.97
2019-04-26T15:01:58.393Z,11.90
2019-04-26T15:04:53.225Z,12.73
2019-04-26T15:07:23.471Z,12.77
2019-04-26T15:09:54.710Z,11.90
2019-04-26T15:12:25.702Z,12.73
2019-04-26T15:14:56.815Z,12.30
2019-04-26T15:17:27.976Z,12.50
2019-04-26T15:19:58.590Z,11.80
2019-04-26T15:22:32.929Z,12.17
2019-04-26T15:25:07.778Z,13.00
2019-04-26T15:27:37.293Z,12.47
2019-04-26T15:30:08.706Z,13.00
2019-04-26T15:32:39.594Z,12.77
2019-04-26T15:35:15.690Z,13.43
2019-04-26T15:37:44.062Z,13.37
2019-04-26T15:40:40.266Z,13.13
2019-04-26T15:43:24.558Z,12.87
2019-04-26T15:46:14.972Z,12.83
2019-04-26T15:49:05.158Z,13.40
2019-04-26T15:51:35.841Z,14.20
2019-04-26T15:54:06.665Z,13.83
2019-04-26T15:56:37.786Z,13.97
2019-04-26T15:59:08.740Z,13.20
2019-04-26T16:01:41.879Z,13.70
2019-04-26T16:04:13.355Z,13.73
2019-04-26T16:06:45.133Z,13.27
2019-04-26T16:09:19.878Z,14.33
2019-04-26T16:11:50.502Z,13.73
2019-04-26T16:14:24.890Z,13.27
2019-04-26T16:16:54.263Z,13.37
2019-04-26T16:19:26.682Z,13.50
2019-04-26T16:22:00.295Z,13.97
2019-04-26T16:24:34.520Z,12.93
2019-04-26T16:27:06.327Z,12.90
2019-04-26T16:32:47.394Z,13.20
2019-04-26T16:35:25.422Z,14.67
2019-04-26T16:37:53.896Z,14.27
2019-04-26T16:40:26.006Z,12.73
2019-04-26T16:42:59.634Z,13.57
2019-04-26T16:45:30.128Z,14.13
2019-04-26T16:48:01.887Z,14.30
2019-04-26T16:50:38.199Z,13.60
2019-04-26T16:53:23.217Z,14.07
2019-04-26T16:55:49.231Z,14.33
2019-04-26T16:58:12.701Z,14.20
2019-04-26T17:00:51.588Z,14.13
2019-04-26T17:03:15.632Z,13.63
2019-04-26T17:05:48.355Z,14.00
2019-04-26T17:08:19.371Z,13.03
2019-04-26T17:09:51.166Z,13.07
2019-04-26T17:10:52.141Z,13.53
2019-04-26T17:13:23.966Z,12.93
2019-04-26T17:15:58.233Z,12.80
2019-04-26T17:18:28.302Z,12.90
2019-04-26T17:20:59.205Z,13.27
2019-04-26T17:24:08.483Z,13.30
2019-04-26T17:26:42.795Z,13.27
2019-04-26T17:29:14.050Z,12.63
2019-04-26T17:31:45.101Z,13.77
2019-04-26T17:34:16.174Z,13.30
2019-04-26T17:36:50.512Z,11.70
2019-04-26T17:39:22.538Z,13.30
2019-04-26T17:41:54.382Z,13.00
2019-04-26T17:44:28.201Z,12.70
2019-04-26T17:47:00.243Z,13.10
2019-04-26T17:49:34.613Z,13.10
2019-04-26T17:52:03.731Z,11.83
2019-04-26T17:54:46.090Z,12.30
2019-04-26T17:57:12.680Z,12.33
2019-04-26T17:59:47.488Z,11.83
2019-04-26T18:02:31.581Z,12.57
2019-04-26T18:04:58.063Z,12.70
2019-04-26T18:07:37.706Z,13.00
2019-04-26T18:09:52.506Z,13.10
2019-04-26T18:12:23.656Z,13.00
2019-04-26T18:14:54.255Z,13.20
2019-04-26T18:17:44.173Z,13.37
2019-04-26T18:20:24.238Z,12.63
2019-04-26T18:23:03.493Z,13.17
2019-04-26T18:25:33.745Z,12.73
2019-04-26T18:28:04.735Z,12.83
2019-04-26T18:30:35.874Z,12.70
2019-04-26T18:33:06.960Z,12.87
2019-04-26T18:35:38.207Z,13.17
2019-04-26T18:38:12.586Z,13.00
2019-04-26T18:40:59.992Z,13.30
2019-04-26T18:43:23.613Z,13.80
2019-04-26T18:45:51.346Z,13.50
2019-04-26T18:48:23.636Z,13.40
2019-04-26T18:50:55.359Z,13.63
2019-04-26T18:54:00.352Z,13.10
2019-04-26T18:56:33.725Z,12.90
2019-04-26T18:59:07.288Z,12.80
2019-04-26T19:01:41.017Z,13.87
2019-04-26T19:04:12.830Z,14.07
2019-04-26T19:06:42.331Z,13.97
2019-04-26T19:09:15.659Z,14.13
2019-04-26T19:11:48.611Z,14.93
2019-04-26T19:14:48.717Z,15.27
2019-04-26T19:17:18.675Z,14.73
2019-04-26T19:20:04.290Z,14.50
2019-04-26T19:22:35.126Z,13.67
2019-04-26T19:25:19.028Z,13.70
2019-04-26T19:27:49.412Z,14.37
2019-04-26T19:30:14.285Z,14.27
2019-04-26T19:32:45.208Z,13.93
2019-04-26T19:35:16.309Z,14.63
2019-04-26T19:37:47.243Z,15.43
2019-04-26T19:40:18.317Z,14.93
2019-04-26T19:42:53.731Z,14.07
2019-04-26T19:45:32.417Z,14.37
2019-04-26T19:48:18.739Z,14.73
2019-04-26T19:51:08.546Z,15.07
2019-04-26T19:53:58.402Z,14.43
2019-04-26T19:56:42.602Z,14.40
2019-04-26T19:59:13.194Z,14.57
2019-04-26T20:01:44.388Z,14.60
2019-04-26T20:04:14.876Z,15.80
2019-04-26T20:06:48.501Z,15.07
2019-04-26T20:09:22.843Z,15.27
2019-04-26T20:11:58.131Z,14.00
2019-04-26T20:14:39.530Z,13.77
2019-04-26T20:16:57.306Z,14.83
2019-04-26T20:19:35.206Z,14.60
2019-04-26T20:22:01.887Z,14.27
2019-04-26T20:24:34.567Z,14.20
2019-04-26T20:27:05.307Z,14.47
2019-04-26T20:29:36.111Z,13.53
2019-04-26T20:32:26.353Z,14.17
2019-04-26T20:35:12.915Z,14.07
2019-04-26T20:37:45.109Z,14.10
2019-04-26T20:40:21.750Z,13.73
2019-04-26T20:42:53.047Z,13.50
2019-04-26T20:45:23.947Z,14.03
2019-04-26T20:47:55.808Z,15.00
2019-04-26T20:50:28.503Z,14.47
2019-04-26T20:53:01.017Z,14.43
2019-04-26T20:55:34.547Z,13.53
2019-04-26T20:58:08.301Z,14.33
2019-04-26T21:00:39.007Z,14.30
2019-04-26T21:03:21.017Z,13.93
2019-04-26T21:05:46.231Z,14.30
2019-04-26T21:08:15.586Z,14.37
2019-04-26T21:10:46.393Z,14.17
2019-04-26T21:13:17.155Z,13.33
2019-04-26T21:15:58.009Z,13.93
2019-04-26T21:18:21.176Z,13.87
2019-04-26T21:20:54.499Z,14.00
2019-04-26T21:23:25.148Z,13.63
2019-04-26T21:26:16.321Z,13.63
2019-04-26T21:29:03.321Z,14.03
2019-04-26T21:31:45.530Z,14.33
2019-04-26T21:34:30.750Z,14.03
2019-04-26T21:37:22.367Z,13.63
2019-04-26T21:40:03.788Z,14.40
2019-04-26T21:42:35.726Z,14.03
2019-04-26T21:45:08.990Z,14.23
2019-04-26T21:47:41.044Z,14.50
2019-04-26T21:50:13.591Z,14.23
2019-04-26T21:52:45.707Z,13.67
2019-04-26T21:55:16.912Z,12.87
2019-04-26T21:57:48.119Z,13.77
2019-04-26T22:00:44.972Z,14.40
2019-04-26T22:03:17.065Z,13.13
2019-04-26T22:05:49.721Z,14.67
2019-04-26T22:08:24.569Z,14.17
2019-04-26T22:10:54.702Z,13.53
2019-04-26T22:13:33.293Z,14.23
2019-04-26T22:16:37.198Z,14.40
2019-04-26T22:19:14.755Z,14.37
2019-04-26T22:21:54.012Z,13.93
2019-04-26T22:24:29.174Z,14.43
2019-04-26T22:26:59.696Z,13.47
2019-04-26T22:29:30.791Z,14.57
2019-04-26T22:32:03.627Z,14.27
2019-04-26T22:34:37.411Z,13.97
2019-04-26T22:37:11.535Z,14.80
2019-04-26T22:39:41.146Z,14.30
2019-04-26T22:42:13.641Z,14.37
2019-04-26T22:44:50.684Z,15.23
2019-04-26T22:47:33.897Z,14.73
2019-04-26T22:50:04.871Z,14.63
2019-04-26T22:52:35.904Z,15.03
2019-04-26T22:55:07.434Z,14.03
2019-04-26T22:57:38.386Z,14.97
2019-04-26T23:00:09.776Z,15.83
2019-04-26T23:02:43.628Z,16.03
2019-04-26T23:05:15.462Z,15.73
2019-04-26T23:08:05.187Z,15.53
2019-04-26T23:10:46.230Z,16.00
2019-04-26T23:13:37.769Z,16.37
2019-04-26T23:16:29.006Z,16.70
2019-04-26T23:19:33.311Z,16.47
2019-04-26T23:22:05.073Z,16.27
2019-04-26T23:24:35.750Z,17.43
2019-04-26T23:27:06.626Z,17.10
2019-04-26T23:29:37.520Z,17.83
2019-04-26T23:32:12.122Z,18.60
2019-04-26T23:34:41.993Z,19.50
2019-04-26T23:37:13.299Z,19.87
2019-04-26T23:39:49.373Z,18.43
2019-04-26T23:42:16.563Z,20.03
2019-04-26T23:44:48.311Z,19.97
2019-04-26T23:47:22.993Z,19.70
2019-04-26T23:49:53.969Z,20.67
2019-04-26T23:52:24.493Z,19.30
2019-04-26T23:54:55.602Z,19.80
2019-04-26T23:57:27.377Z,20.13
